Time;durP1;ratioP1;P1;durP2;ratioP2;P2;SDS_P1;SDS_P2;PMS_P1;PMS_P2;Temp;Humidity;BMP_temperature;BMP_pressure;BME280_temperature;BME280_humidity;BME280_pressure;Samples;Min_cycle;Max_cycle;Signal;HPM_P1;HPM_P2
2022/09/05 00:02:06;;;;;;;7.58;4.65;;;;;;;6.76;71.59;100993.23;1641503;85;20941;-59
2022/09/05 00:05:23;;;;;;;16.75;9.83;;;;;;;6.74;71.80;100988.05;1649953;85;20953;-58
2022/09/05 00:08:15;;;;;;;14.83;7.85;;;;;;;6.70;71.82;100992.42;1621714;86;20968;-59
2022/09/05 00:11:20;;;;;;;16.40;8.03;;;;;;;6.71;72.12;100985.48;1644570;85;21086;-60
2022/09/05 00:14:38;;;;;;;14.15;8.25;;;;;;;6.71;72.35;100993.27;1645945;85;20983;-60
2022/09/05 00:18:16;;;;;;;14.53;6.65;;;;;;;6.68;72.19;100988.12;1640252;85;20980;-60
2022/09/05 00:21:21;;;;;;;9.55;4.25;;;;;;;6.65;72.52;100986.41;1643950;85;21058;-59
2022/09/05 00:24:32;;;;;;;6.42;4.30;;;;;;;6.64;72.64;100991.64;1637169;85;20973;-59
2022/09/05 00:27:31;;;;;;;6.50;4.33;;;;;;;6.62;72.57;100990.78;1643288;85;20963;-59
2022/09/05 00:30:18;;;;;;;7.55;5.22;;;;;;;6.57;72.59;100984.78;1622424;86;20993;-59
2022/09/05 00:33:23;;;;;;;8.15;5.28;;;;;;;6.50;72.54;100988.74;1660643;85;20986;-60
2022/09/05 00:36:38;;;;;;;8.10;4.87;;;;;;;6.46;72.73;100992.23;1625227;86;20927;-59
2022/09/05 00:39:28;;;;;;;8.75;5.53;;;;;;;6.46;73.02;100988.34;1619605;86;21556;-60
2022/09/05 00:42:17;;;;;;;9.13;4.72;;;;;;;6.50;73.35;100979.66;1618609;87;20994;-59
2022/09/05 00:45:05;;;;;;;4.03;3.10;;;;;;;6.47;73.06;100983.59;1587080;89;21480;-59
2022/09/05 00:48:07;;;;;;;5.97;3.70;;;;;;;6.45;73.20;100977.55;1610370;87;20959;-60
2022/09/05 00:51:12;;;;;;;5.72;3.40;;;;;;;6.47;73.39;100977.10;1605401;87;20970;-60
2022/09/05 00:54:39;;;;;;;5.45;2.70;;;;;;;6.46;73.39;100979.70;1613004;87;20975;-59
2022/09/05 00:57:45;;;;;;;3.62;2.70;;;;;;;6.43;73.48;100975.40;1610419;88;20966;-59
2022/09/05 01:00:46;;;;;;;8.08;4.40;;;;;;;6.42;73.58;100978.88;1572557;90;21004;-59
2022/09/05 01:03:57;;;;;;;3.42;2.60;;;;;;;6.40;73.69;100975.43;1573658;90;21025;-59
2022/09/05 01:07:16;;;;;;;5.10;2.75;;;;;;;6.41;73.87;100978.47;1568032;90;21040;-59
2022/09/05 01:10:27;;;;;;;4.95;2.90;;;;;;;6.37;73.90;100980.66;1567274;90;20995;-59
2022/09/05 01:13:25;;;;;;;7.50;3.00;;;;;;;6.39;73.86;100978.91;1637691;85;21034;-59
2022/09/05 01:16:32;;;;;;;5.95;2.42;;;;;;;6.38;74.11;100977.17;1624886;86;21019;-59
2022/09/05 01:19:34;;;;;;;5.08;2.62;;;;;;;6.43;74.36;100983.18;1652774;85;20958;-59
2022/09/05 01:22:49;;;;;;;7.40;3.08;;;;;;;6.40;74.20;100980.62;1647993;86;21017;-59
2022/09/05 01:26:19;;;;;;;5.62;2.70;;;;;;;6.36;74.27;100986.73;1661390;85;20950;-59
2022/09/05 01:29:20;;;;;;;2.30;2.10;;;;;;;6.28;74.45;100984.20;1633432;86;21007;-59
2022/09/05 01:32:37;;;;;;;4.70;2.50;;;;;;;6.22;74.55;100979.52;1639866;85;20939;-59
2022/09/05 01:35:41;;;;;;;;;;;;;;;6.18;74.62;100979.96;1641832;85;20984;-59
2022/09/05 01:38:46;;;;;;;3.90;2.08;;;;;;;6.16;74.78;100980.84;1698194;83;20099;-59
2022/09/05 01:42:04;;;;;;;7.45;2.17;;;;;;;6.12;74.76;100983.06;1707133;83;20907;-60
2022/09/05 01:45:07;;;;;;;3.27;1.90;;;;;;;6.09;74.87;100985.23;1701110;83;20927;-59
2022/09/05 01:48:03;;;;;;;4.60;2.10;;;;;;;6.08;75.05;100981.34;1701052;83;20946;-59
2022/09/05 01:50:56;;;;;;;3.67;2.40;;;;;;;6.08;75.20;100990.42;1701530;83;20947;-60
2022/09/05 01:53:52;;;;;;;7.00;2.70;;;;;;;6.08;75.15;100990.42;1702379;83;21453;-60
2022/09/05 01:56:54;;;;;;;6.25;2.30;;;;;;;6.06;75.27;100993.05;1661344;84;20921;-59
2022/09/05 01:59:53;;;;;;;4.40;2.33;;;;;;;6.04;75.32;100987.86;1698860;83;20934;-59
2022/09/05 02:03:04;;;;;;;4.83;2.25;;;;;;;6.03;75.33;100988.74;1695588;83;20958;-59
2022/09/05 02:06:02;;;;;;;4.20;2.17;;;;;;;5.99;75.38;100984.47;1708955;82;20962;-59
2022/09/05 02:08:58;;;;;;;5.60;2.10;;;;;;;5.98;75.50;100982.73;1691760;83;20958;-60
2022/09/05 02:11:57;;;;;;;4.75;2.25;;;;;;;5.99;75.55;100986.17;1694753;83;20926;-59
2022/09/05 02:14:53;;;;;;;3.25;1.95;;;;;;;5.97;75.59;100988.80;1714709;83;20989;-59
2022/09/05 02:17:45;;;;;;;3.45;2.35;;;;;;;5.95;75.67;100987.95;1710439;83;20933;-59
2022/09/05 02:20:35;;;;;;;3.42;2.08;;;;;;;5.96;75.72;100993.54;1690366;84;21022;-59
2022/09/05 02:23:37;;;;;;;3.12;1.98;;;;;;;5.95;75.77;100994.42;1688840;84;20946;-60
2022/09/05 02:27:00;;;;;;;4.00;2.00;;;;;;;5.91;75.82;100990.12;1695696;83;20954;-59
2022/09/05 02:30:10;;;;;;;6.70;2.33;;;;;;;5.90;75.99;100993.56;1690715;83;20997;-59
2022/09/05 02:33:31;;;;;;;3.35;2.00;;;;;;;5.88;75.99;100999.22;1700717;83;20910;-59
2022/09/05 02:36:36;;;;;;;6.10;1.95;;;;;;;5.85;76.08;100991.44;1672712;85;20994;-59
2022/09/05 02:39:48;;;;;;;3.12;1.80;;;;;;;5.86;76.34;101000.95;1722327;83;20942;-59
2022/09/05 02:42:43;;;;;;;4.62;2.40;;;;;;;5.85;76.30;100999.21;1688457;84;20938;-59
2022/09/05 02:46:17;;;;;;;4.20;1.85;;;;;;;5.81;76.33;101002.71;1611187;87;20974;-59
2022/09/05 02:49:15;;;;;;;7.60;1.95;;;;;;;5.81;76.45;100992.34;1610912;87;21544;-59
2022/09/05 02:52:04;;;;;;;2.65;1.92;;;;;;;5.83;76.53;100995.80;1537317;92;21036;-59
2022/09/05 02:54:50;;;;;;;2.08;1.57;;;;;;;5.76;76.30;100988.92;1536291;92;21551;-59
2022/09/05 02:58:21;;;;;;;3.58;2.10;;;;;;;5.70;76.43;100996.75;1537252;91;21598;-59
2022/09/05 03:01:25;;;;;;;3.42;2.20;;;;;;;5.66;76.50;100988.55;1545307;90;21535;-59
2022/09/05 03:04:33;;;;;;;3.77;1.80;;;;;;;5.63;76.62;100993.75;1537024;91;21074;-59
2022/09/05 03:07:57;;;;;;;11.95;3.27;;;;;;;5.61;76.70;100993.34;1539065;92;21507;-59
2022/09/05 03:11:11;;;;;;;8.65;2.58;;;;;;;5.58;76.65;100992.07;1534065;92;21694;-59
2022/09/05 03:14:35;;;;;;;4.22;2.27;;;;;;;5.51;76.88;100991.67;1539503;91;21004;-59
2022/09/05 03:17:43;;;;;;;5.10;2.08;;;;;;;5.53;77.06;100995.12;1536500;91;21032;-59
2022/09/05 03:20:53;;;;;;;4.65;2.60;;;;;;;5.52;77.02;100996.00;1534062;92;20953;-59
2022/09/05 03:24:10;;;;;;;5.25;2.20;;;;;;;5.49;77.06;100997.31;1580040;88;20995;-60
2022/09/05 03:27:23;;;;;;;4.17;2.40;;;;;;;5.45;77.19;100996.89;1589646;88;20956;-60
2022/09/05 03:30:23;;;;;;;5.55;2.60;;;;;;;5.43;77.25;101007.69;1661281;84;20926;-60
2022/09/05 03:33:31;;;;;;;3.98;2.10;;;;;;;5.44;77.48;101008.14;1693358;84;20942;-59
2022/09/05 03:36:53;;;;;;;9.08;2.15;;;;;;;5.44;77.31;101010.73;1687084;84;20913;-59
2022/09/05 03:40:02;;;;;;;14.93;2.52;;;;;;;5.41;77.34;101013.34;1656841;84;20938;-59
2022/09/05 03:43:07;;;;;;;7.70;2.42;;;;;;;5.39;77.52;101012.48;1689550;84;20958;-59
2022/09/05 03:46:30;;;;;;;7.65;2.47;;;;;;;5.40;77.67;101014.19;1599875;87;20954;-59
2022/09/05 03:49:35;;;;;;;10.85;2.98;;;;;;;5.41;77.76;101009.45;1630131;86;20963;-59
2022/09/05 03:52:50;;;;;;;12.00;3.67;;;;;;;5.41;77.78;101008.16;1628280;86;20993;-59
2022/09/05 03:56:18;;;;;;;11.68;2.45;;;;;;;5.43;77.85;101008.98;1628543;86;20998;-59
2022/09/05 03:59:26;;;;;;;5.00;2.15;;;;;;;5.45;77.92;101014.17;1616891;87;21455;-60
2022/09/05 04:02:14;;;;;;;9.73;2.87;;;;;;;5.44;77.99;101015.91;1606598;87;21048;-59
2022/09/05 04:05:04;;;;;;;7.20;2.67;;;;;;;5.44;77.97;101021.09;1601974;87;21440;-59
2022/09/05 04:07:54;;;;;;;6.15;2.60;;;;;;;5.44;77.97;101019.80;1602192;87;20961;-59
2022/09/05 04:10:59;;;;;;;13.32;2.80;;;;;;;5.45;78.04;101025.39;1614236;87;20957;-59
2022/09/05 04:13:58;;;;;;;5.47;2.80;;;;;;;5.48;78.09;101019.33;1564789;90;21046;-59
2022/09/05 04:16:59;;;;;;;5.03;2.08;;;;;;;5.47;78.13;101019.77;1573516;89;21760;-59
2022/09/05 04:19:52;;;;;;;6.97;2.20;;;;;;;5.51;78.24;101017.58;1587948;89;21541;-59
2022/09/05 04:22:57;;;;;;;5.10;2.45;;;;;;;5.53;78.25;101015.84;1603642;88;20977;-59
2022/09/05 04:26:26;;;;;;;3.55;2.58;;;;;;;5.54;78.40;101017.55;1602302;87;21540;-59
2022/09/05 04:29:24;;;;;;;5.83;2.52;;;;;;;5.60;78.50;101022.73;1590737;88;21559;-60
2022/09/05 04:32:49;;;;;;;9.20;2.87;;;;;;;5.67;78.48;101020.09;1588727;88;21007;-60
2022/09/05 04:35:58;;;;;;;8.80;2.77;;;;;;;5.63;78.20;101026.14;1611136;87;21392;-60
2022/09/05 04:38:44;;;;;;;13.32;2.90;;;;;;;5.56;78.23;101023.59;1627827;87;20990;-60
2022/09/05 04:41:29;;;;;;;6.20;2.25;;;;;;;5.56;78.38;101032.66;1609593;87;21063;-60
2022/09/05 04:44:18;;;;;;;7.40;2.87;;;;;;;5.57;78.44;101029.23;1626839;87;20934;-59
2022/09/05 04:47:10;;;;;;;8.38;2.30;;;;;;;5.64;78.64;101038.25;1628193;86;20970;-59
2022/09/05 04:50:10;;;;;;;8.73;2.62;;;;;;;5.75;78.76;101033.86;1642374;83;21885;-60
2022/09/05 04:53:36;;;;;;;11.68;2.33;;;;;;;5.91;79.26;101031.59;1697027;83;20910;-60
2022/09/05 04:56:25;;;;;;;6.17;1.80;;;;;;;7.53;81.01;101028.18;1572627;89;21162;-60
2022/09/05 04:59:18;;;;;;;6.58;1.90;;;;;;;9.76;80.58;101024.98;1605034;87;21010;-60
2022/09/05 05:02:11;;;;;;;10.55;1.85;;;;;;;11.26;79.08;101021.09;1607001;87;20955;-59
2022/09/05 05:05:10;;;;;;;11.50;3.20;;;;;;;12.34;78.49;100995.45;1609149;87;20987;-62
2022/09/05 05:08:21;;;;;;;16.10;3.85;;;;;;;13.56;77.60;101019.84;1606717;88;21647;-60
2022/09/05 05:11:38;;;;;;;9.90;2.42;;;;;;;14.25;76.25;101020.13;1603673;88;20958;-60
2022/09/05 05:14:41;;;;;;;7.80;2.55;;;;;;;14.74;76.25;101016.76;1608606;87;20971;-61
2022/09/05 05:17:37;;;;;;;8.00;2.62;;;;;;;15.31;75.70;101020.30;1597885;87;21513;-61
2022/09/05 05:20:41;;;;;;;3.77;2.25;;;;;;;15.90;75.66;101013.15;1612135;87;21698;-61
2022/09/05 05:23:43;;;;;;;8.33;2.35;;;;;;;15.97;73.89;101018.98;1595498;88;21016;-61
2022/09/05 05:26:48;;;;;;;9.55;2.20;;;;;;;15.07;73.03;101026.67;1598915;88;21077;-60
2022/09/05 05:29:52;;;;;;;7.12;2.20;;;;;;;14.18;73.41;101027.88;1609084;87;21014;-60
2022/09/05 05:32:46;;;;;;;6.53;2.58;;;;;;;13.35;73.70;101029.38;1673856;82;20967;-60
2022/09/05 05:35:33;;;;;;;6.72;2.27;;;;;;;12.79;74.26;101023.58;1673823;83;20973;-61
2022/09/05 05:38:25;;;;;;;4.37;1.87;;;;;;;12.48;74.75;101027.27;1692064;83;20931;-60
2022/09/05 05:41:21;;;;;;;4.22;1.90;;;;;;;12.23;74.33;101029.39;1702841;83;20993;-60
2022/09/05 05:44:26;;;;;;;14.17;2.57;;;;;;;11.78;74.10;101040.87;1696044;83;20950;-60
2022/09/05 05:47:37;;;;;;;10.13;2.02;;;;;;;11.41;74.41;101040.23;1703084;83;21030;-60
2022/09/05 05:50:46;;;;;;;5.17;1.60;;;;;;;11.18;74.57;101042.67;1673660;85;20978;-60
2022/09/05 05:53:59;;;;;;;3.62;1.80;;;;;;;11.08;74.94;101045.12;1711226;83;20922;-59
2022/09/05 05:57:07;;;;;;;8.15;2.37;;;;;;;11.22;75.28;101044.73;1693714;83;20964;-60
2022/09/05 06:00:23;;;;;;;5.12;1.85;;;;;;;11.28;75.01;101045.41;1688549;84;21482;-60
2022/09/05 06:03:32;;;;;;;6.93;1.70;;;;;;;11.50;75.35;101046.09;1684486;83;20935;-59
2022/09/05 06:07:07;;;;;;;9.43;2.67;;;;;;;11.93;75.16;101042.17;1696612;82;20910;-60
2022/09/05 06:10:31;;;;;;;9.07;3.10;;;;;;;12.16;74.84;101034.45;1704378;83;20914;-60
2022/09/05 06:14:01;;;;;;;4.50;2.67;;;;;;;12.85;75.46;101036.45;1686986;83;20982;-60
2022/09/05 06:17:11;;;;;;;8.18;2.80;;;;;;;13.33;74.62;101043.46;1711250;81;21050;-60
2022/09/05 06:20:34;;;;;;;4.90;1.82;;;;;;;13.14;73.91;101049.38;1691651;83;20938;-60
2022/09/05 06:23:59;;;;;;;2.37;1.57;;;;;;;12.82;73.76;101054.45;1696185;83;20915;-60
2022/09/05 06:26:58;;;;;;;5.65;1.72;;;;;;;12.46;73.80;101060.51;1698397;82;21595;-61
2022/09/05 06:30:15;;;;;;;16.32;7.72;;;;;;;12.22;74.37;101055.65;1696652;82;21026;-61
2022/09/05 06:33:37;;;;;;;15.13;8.83;;;;;;;12.27;74.88;101057.21;1668338;85;21559;-60
2022/09/05 06:36:53;;;;;;;9.45;2.47;;;;;;;12.67;75.41;101061.09;1712724;83;20909;-61
2022/09/05 06:40:01;;;;;;;10.57;2.60;;;;;;;12.86;75.21;101061.78;1695252;83;20942;-61
2022/09/05 06:43:03;;;;;;;6.65;3.30;;;;;;;13.00;75.29;101062.14;1695972;83;21110;-62
2022/09/05 06:46:05;;;;;;;4.08;2.20;;;;;;;13.26;75.85;101052.49;1681456;84;20935;-61
2022/09/05 06:49:11;;;;;;;13.60;8.58;;;;;;;13.50;75.75;101057.25;1692675;83;21002;-61
2022/09/05 06:52:34;;;;;;;7.97;3.83;;;;;;;13.79;76.03;101057.45;1715847;82;20945;-61
2022/09/05 06:55:49;;;;;;;4.28;3.08;;;;;;;14.09;75.90;101053.61;1691358;84;20946;-60
2022/09/05 06:59:32;;;;;;;3.95;2.37;;;;;;;14.32;75.96;101057.91;1637141;86;20966;-60
2022/09/05 07:02:30;;;;;;;5.12;2.37;;;;;;;14.51;75.68;101065.89;1639720;86;22069;-60
2022/09/05 07:05:59;;;;;;;6.25;2.90;;;;;;;14.60;75.49;101067.30;1622839;87;21047;-61
2022/09/05 07:09:19;;;;;;;6.60;2.10;;;;;;;14.65;75.41;101064.48;1640285;86;21529;-60
2022/09/05 07:12:21;;;;;;;3.85;1.37;;;;;;;14.74;75.45;101062.77;1637669;86;21721;-61
2022/09/05 07:15:38;;;;;;;4.85;1.07;;;;;;;14.79;75.34;101063.42;1637686;86;21465;-61
2022/09/05 07:18:44;;;;;;;5.35;1.32;;;;;;;15.00;75.57;101066.41;1629668;87;20989;-60
2022/09/05 07:21:48;;;;;;;1.52;0.88;;;;;;;15.11;74.91;101065.09;1630028;87;20934;-60
2022/09/05 07:24:37;;;;;;;4.10;0.90;;;;;;;15.18;75.12;101069.17;1601013;88;20969;-61
2022/09/05 07:27:30;;;;;;;2.62;0.90;;;;;;;15.50;75.27;101074.73;1601135;88;20977;-60
2022/09/05 07:30:19;;;;;;;0.80;0.70;;;;;;;15.79;75.27;101070.28;1598866;88;20941;-60
2022/09/05 07:33:04;;;;;;;0.82;0.50;;;;;;;16.02;74.96;101072.27;1600977;88;21012;-60
2022/09/05 07:35:50;;;;;;;1.92;0.65;;;;;;;16.15;74.93;101075.18;1641750;85;20941;-60
2022/09/05 07:38:38;;;;;;;1.55;0.60;;;;;;;16.34;74.96;101075.52;1672238;84;20962;-61
2022/09/05 07:41:30;;;;;;;1.70;0.70;;;;;;;16.56;75.10;101078.40;1671611;85;21435;-60
2022/09/05 07:44:37;;;;;;;0.93;0.53;;;;;;;16.42;74.02;101076.92;1652097;86;21018;-60
2022/09/05 07:47:32;;;;;;;0.85;0.50;;;;;;;16.11;73.80;101082.39;1664354;85;20933;-60
2022/09/05 07:50:17;;;;;;;1.52;0.80;;;;;;;15.97;74.11;101071.67;1668671;84;20994;-60
2022/09/05 07:53:03;;;;;;;1.27;0.53;;;;;;;15.80;73.75;101083.02;1663895;85;20900;-60
2022/09/05 07:55:58;;;;;;;0.78;0.37;;;;;;;15.97;74.46;101082.20;1668093;84;20973;-60
2022/09/05 07:58:49;;;;;;;5.00;0.60;;;;;;;16.27;74.14;101082.03;1653286;85;20938;-60
2022/09/05 08:01:36;;;;;;;2.98;0.88;;;;;;;16.63;74.25;101086.37;1667924;85;20987;-60
2022/09/05 08:04:38;;;;;;;1.22;0.45;;;;;;;16.64;72.65;101089.41;1671516;83;21038;-62
2022/09/05 08:07:27;;;;;;;4.40;0.62;;;;;;;16.29;72.40;101081.47;1679050;84;21045;-61
2022/09/05 08:10:31;;;;;;;1.05;0.60;;;;;;;16.04;72.40;101080.97;1674818;85;20949;-62
2022/09/05 08:13:21;;;;;;;1.57;0.40;;;;;;;16.01;72.49;101081.13;1687434;84;21654;-61
2022/09/05 08:16:09;;;;;;;1.15;0.80;;;;;;;16.26;72.81;101083.41;1664085;85;21511;-61
2022/09/05 08:19:45;;;;;;;0.55;0.30;;;;;;;16.43;72.54;101083.42;1666221;85;21076;-60
2022/09/05 08:22:36;;;;;;;1.35;0.30;;;;;;;16.62;72.51;101087.78;1668491;84;20934;-61
2022/09/05 08:25:26;;;;;;;0.90;0.40;;;;;;;16.99;72.77;101081.48;1689369;84;20950;-62
2022/09/05 08:28:39;;;;;;;0.62;0.40;;;;;;;17.28;72.31;101089.64;1691806;83;20934;-60
2022/09/05 08:31:51;;;;;;;0.50;0.40;;;;;;;17.53;72.46;101088.73;1706111;82;20996;-60
2022/09/05 08:34:42;;;;;;;2.37;0.75;;;;;;;17.83;71.44;101084.02;1697526;83;20963;-60
2022/09/05 08:37:27;;;;;;;1.75;0.60;;;;;;;17.86;71.27;101084.70;1690817;84;20994;-61
2022/09/05 08:40:34;;;;;;;4.53;1.10;;;;;;;18.15;71.58;101083.98;1691724;84;20919;-61
2022/09/05 08:43:41;;;;;;;3.02;0.40;;;;;;;18.45;70.81;101082.21;1681929;84;21464;-60
2022/09/05 08:46:32;;;;;;;;;;;;;;;18.33;70.80;101083.78;1670540;84;20975;-61
2022/09/05 08:50:05;;;;;;;1.15;0.47;;;;;;;18.40;69.72;101076.37;1672863;84;20125;-61
2022/09/05 08:53:06;;;;;;;0.95;0.50;;;;;;;18.23;69.96;101079.11;1641865;86;21006;-61
2022/09/05 08:56:12;;;;;;;0.35;0.35;;;;;;;18.28;69.33;101074.41;1640469;85;20941;-61
2022/09/05 08:59:25;;;;;;;1.35;0.70;;;;;;;18.04;69.06;101074.90;1632317;87;21461;-61
2022/09/05 09:02:48;;;;;;;3.35;0.50;;;;;;;17.76;68.95;101080.01;1640531;87;21022;-61
2022/09/05 09:05:58;;;;;;;2.47;0.40;;;;;;;17.60;68.63;101072.91;1634316;86;21005;-60
2022/09/05 09:09:00;;;;;;;0.40;0.30;;;;;;;17.48;68.39;101070.11;1641286;87;20938;-60
2022/09/05 09:11:56;;;;;;;1.92;0.42;;;;;;;17.34;67.84;101065.58;1628992;86;20974;-61
2022/09/05 09:15:08;;;;;;;0.30;0.30;;;;;;;17.11;67.44;101075.58;1634360;86;21033;-60
2022/09/05 09:17:55;;;;;;;2.80;0.55;;;;;;;16.74;67.01;101069.53;1638605;87;21018;-60
2022/09/05 09:20:54;;;;;;;0.90;0.45;;;;;;;16.39;66.97;101069.17;1635531;86;20974;-60
2022/09/05 09:23:49;;;;;;;0.42;0.33;;;;;;;16.22;66.55;101073.97;1629456;86;20929;-59
2022/09/05 09:26:48;;;;;;;1.40;0.40;;;;;;;16.11;66.88;101082.39;1630181;86;21512;-60
2022/09/05 09:29:39;;;;;;;1.15;0.62;;;;;;;16.04;66.32;101075.70;1684544;84;21011;-60
2022/09/05 09:32:25;;;;;;;0.30;0.30;;;;;;;15.92;66.11;101086.84;1692235;84;20922;-60
2022/09/05 09:35:51;;;;;;;0.42;0.28;;;;;;;15.82;66.17;101080.70;1695151;83;21504;-60
2022/09/05 09:38:46;;;;;;;;;;;;;;;15.80;65.86;101079.91;1688192;83;21004;-61
2022/09/05 09:41:47;;;;;;;0.50;0.30;;;;;;;15.74;65.37;101077.58;1691306;83;20157;-60
2022/09/05 09:45:26;;;;;;;1.60;0.57;;;;;;;15.71;65.57;101079.04;1689943;84;20925;-60
2022/09/05 09:48:19;;;;;;;1.85;0.70;;;;;;;15.68;65.46;101076.52;1687085;84;21504;-60
2022/09/05 09:51:29;;;;;;;1.40;0.47;;;;;;;15.72;65.45;101072.84;1688880;84;21463;-61
2022/09/05 09:54:36;;;;;;;1.17;0.50;;;;;;;15.76;65.43;101074.38;1679764;84;21505;-60
2022/09/05 09:57:56;;;;;;;0.65;0.42;;;;;;;15.85;65.54;101077.92;1679769;84;20999;-60
2022/09/05 10:01:12;;;;;;;1.95;0.40;;;;;;;15.99;65.34;101079.02;1687952;83;20954;-61
2022/09/05 10:04:42;;;;;;;1.57;0.57;;;;;;;16.05;65.12;101075.64;1690605;84;20932;-60
2022/09/05 10:07:48;;;;;;;1.67;0.60;;;;;;;16.12;65.12;101073.55;1694233;84;20959;-62
2022/09/05 10:10:58;;;;;;;1.45;0.62;;;;;;;16.26;65.26;101071.08;1689450;83;20967;-61
2022/09/05 10:14:29;;;;;;;1.40;1.00;;;;;;;16.42;65.23;101065.06;1681181;83;21007;-61
2022/09/05 10:17:47;;;;;;;2.50;1.20;;;;;;;16.58;65.11;101066.00;1685876;84;20918;-61
2022/09/05 10:20:58;;;;;;;5.12;1.67;;;;;;;16.74;65.25;101056.34;1680573;84;20927;-62
2022/09/05 10:24:15;;;;;;;1.77;0.93;;;;;;;16.95;64.84;101054.89;1687431;83;20938;-62
2022/09/05 10:27:23;;;;;;;0.93;0.60;;;;;;;16.95;64.56;101058.85;1701016;82;20974;-62
2022/09/05 10:30:44;;;;;;;1.67;0.70;;;;;;;17.03;64.65;101054.02;1690015;83;20969;-62
2022/09/05 10:33:45;;;;;;;3.17;0.93;;;;;;;17.21;64.81;101053.02;1715577;81;20973;-62
2022/09/05 10:36:31;;;;;;;1.60;0.72;;;;;;;17.65;64.81;101051.54;1688902;82;20965;-65
2022/09/05 10:39:27;;;;;;;0.90;0.70;;;;;;;17.95;64.35;101054.26;1708788;83;20953;-62
2022/09/05 10:42:24;;;;;;;1.60;0.75;;;;;;;18.06;64.28;101046.59;1693052;83;20998;-62
2022/09/05 10:45:16;;;;;;;2.72;0.50;;;;;;;18.32;64.31;101051.69;1625846;86;21548;-62
2022/09/05 10:48:48;;;;;;;1.15;0.55;;;;;;;18.39;63.44;101049.52;1596646;87;21084;-62
2022/09/05 10:52:15;;;;;;;15.43;1.07;;;;;;;18.46;63.76;101052.20;1635152;86;20991;-62
2022/09/05 10:55:17;;;;;;;0.50;0.50;;;;;;;18.38;62.96;101046.51;1607070;87;21517;-62
2022/09/05 10:58:19;;;;;;;1.25;0.53;;;;;;;18.17;62.93;101047.75;1604069;87;20950;-62
2022/09/05 11:01:11;;;;;;;5.35;0.90;;;;;;;18.39;63.37;101048.67;1611284;87;20938;-62
2022/09/05 11:04:34;;;;;;;0.65;0.50;;;;;;;18.60;62.92;101042.57;1610961;87;21547;-62
2022/09/05 11:07:49;;;;;;;1.20;0.50;;;;;;;18.52;62.54;101041.25;1605803;87;21032;-62
2022/09/05 11:10:54;;;;;;;1.72;0.40;;;;;;;18.27;62.25;101045.81;1608196;87;20980;-62
2022/09/05 11:13:54;;;;;;;1.57;0.60;;;;;;;18.07;62.03;101045.65;1606696;87;21084;-62
2022/09/05 11:16:54;;;;;;;0.75;0.40;;;;;;;17.93;61.89;101048.23;1603815;88;21060;-62
2022/09/05 11:19:43;;;;;;;0.78;0.40;;;;;;;17.87;62.00;101045.94;1609725;87;20962;-62
2022/09/05 11:22:38;;;;;;;17.73;1.80;;;;;;;17.79;61.59;101044.20;1662868;83;20935;-63
2022/09/05 11:25:26;;;;;;;0.40;0.28;;;;;;;17.73;61.49;101045.36;1689699;84;20958;-62
2022/09/05 11:28:28;;;;;;;1.05;0.50;;;;;;;17.85;61.37;101039.89;1708531;83;21487;-63
2022/09/05 11:31:18;;;;;;;0.40;0.23;;;;;;;17.86;61.02;101037.14;1685238;83;20927;-62
2022/09/05 11:34:18;;;;;;;3.02;0.50;;;;;;;17.74;60.45;101039.61;1693182;83;21011;-62
2022/09/05 11:37:08;;;;;;;1.20;0.33;;;;;;;17.73;60.68;101038.77;1711080;82;20958;-62
2022/09/05 11:40:19;;;;;;;0.65;0.40;;;;;;;17.97;60.63;101032.56;1696940;82;20967;-62
2022/09/05 11:43:36;;;;;;;0.72;0.30;;;;;;;18.20;60.47;101034.35;1701268;83;20922;-62
2022/09/05 11:46:38;;;;;;;0.55;0.40;;;;;;;18.56;60.19;101026.88;1701506;82;20934;-61
2022/09/05 11:50:01;;;;;;;1.62;0.47;;;;;;;18.84;60.26;101022.61;1700684;82;20989;-61
2022/09/05 11:53:00;;;;;;;0.40;0.30;;;;;;;19.23;59.51;101006.04;1702697;83;21043;-61
2022/09/05 11:56:02;;;;;;;1.60;0.45;;;;;;;19.20;58.70;101013.34;1704941;82;20934;-61
2022/09/05 11:59:04;;;;;;;3.30;0.60;;;;;;;19.06;58.50;101010.70;1703268;83;20958;-61
2022/09/05 12:02:32;;;;;;;0.42;0.40;;;;;;;18.96;58.68;101005.99;1694574;83;20937;-60
2022/09/05 12:05:42;;;;;;;0.43;0.40;;;;;;;18.97;57.62;101010.80;1677086;83;20923;-61
2022/09/05 12:08:46;;;;;;;0.90;0.50;;;;;;;18.94;58.11;101009.20;1702070;82;21013;-61
2022/09/05 12:11:51;;;;;;;1.32;0.40;;;;;;;18.89;57.66;101005.13;1691484;83;20992;-61
2022/09/05 12:14:50;;;;;;;1.65;0.40;;;;;;;18.81;57.39;101012.22;1692958;82;20985;-61
2022/09/05 12:17:57;;;;;;;0.45;0.30;;;;;;;18.76;57.20;101012.96;1684895;82;21037;-61
2022/09/05 12:21:02;;;;;;;0.78;0.40;;;;;;;18.72;56.71;101008.78;1693037;83;20963;-62
2022/09/05 12:24:15;;;;;;;1.12;0.45;;;;;;;18.59;56.29;101004.69;1699429;83;20973;-60
2022/09/05 12:27:12;;;;;;;0.62;0.37;;;;;;;18.56;56.32;101004.41;1700975;83;21924;-60
2022/09/05 12:29:57;;;;;;;2.60;0.50;;;;;;;18.81;56.45;101001.62;1671829;85;20934;-60
2022/09/05 12:32:55;;;;;;;0.60;0.37;;;;;;;18.93;56.22;100998.25;1691673;83;21020;-60
2022/09/05 12:35:54;;;;;;;0.40;0.40;;;;;;;18.89;56.08;101004.66;1662412;84;20970;-60
2022/09/05 12:39:17;;;;;;;0.60;0.30;;;;;;;18.83;55.80;101010.33;1684026;84;20942;-60
2022/09/05 12:42:08;;;;;;;2.72;0.50;;;;;;;18.69;55.54;101008.49;1692602;84;20931;-60
2022/09/05 12:45:21;;;;;;;0.68;0.40;;;;;;;18.54;55.39;101002.34;1691335;83;20953;-60
2022/09/05 12:48:30;;;;;;;1.40;0.40;;;;;;;18.40;55.34;101003.64;1694214;83;20999;-60
2022/09/05 12:51:22;;;;;;;2.87;0.53;;;;;;;18.29;55.10;101003.44;1661592;84;21912;-60
2022/09/05 12:54:12;;;;;;;0.33;0.23;;;;;;;18.09;54.84;101002.81;1692515;83;20969;-61
2022/09/05 12:57:22;;;;;;;0.35;0.30;;;;;;;17.91;54.75;101005.19;1690252;83;21033;-61
2022/09/05 13:00:15;;;;;;;4.95;0.60;;;;;;;17.83;54.90;101000.80;1685910;84;20911;-60
2022/09/05 13:03:03;;;;;;;0.50;0.47;;;;;;;17.78;54.78;100993.57;1684109;84;21033;-60
2022/09/05 13:05:56;;;;;;;0.98;0.50;;;;;;;17.63;54.65;100998.79;1659391;84;21007;-61
2022/09/05 13:08:48;;;;;;;1.02;0.30;;;;;;;17.60;54.75;100995.48;1697312;83;21005;-61
2022/09/05 13:11:37;;;;;;;0.68;0.45;;;;;;;17.50;54.63;100999.56;1695989;83;20973;-60
2022/09/05 13:14:28;;;;;;;1.02;0.65;;;;;;;17.44;54.43;100988.88;1686588;83;21293;-60
2022/09/05 13:17:16;;;;;;;0.30;0.30;;;;;;;17.37;54.53;100996.77;1682378;83;20922;-61
2022/09/05 13:20:07;;;;;;;3.35;0.40;;;;;;;17.37;54.50;100992.81;1683774;84;21479;-60
2022/09/05 13:22:52;;;;;;;1.25;0.33;;;;;;;17.31;54.32;100994.44;1695052;84;21471;-60
2022/09/05 13:25:41;;;;;;;0.60;0.37;;;;;;;17.31;54.56;100989.16;1682362;84;20907;-61
2022/09/05 13:28:34;;;;;;;0.98;0.30;;;;;;;17.28;54.18;100989.34;1684133;83;21398;-60
2022/09/05 13:31:49;;;;;;;0.37;0.30;;;;;;;17.18;54.03;101005.69;1658725;84;20934;-60
2022/09/05 13:34:45;;;;;;;0.42;0.40;;;;;;;17.06;54.19;100995.80;1663675;85;21512;-60
2022/09/05 13:37:47;;;;;;;1.20;0.50;;;;;;;17.04;54.36;100992.39;1674692;84;20975;-60
2022/09/05 13:40:43;;;;;;;0.78;0.35;;;;;;;17.04;54.36;100993.70;1675673;84;20971;-60
2022/09/05 13:43:37;;;;;;;1.27;0.50;;;;;;;17.04;54.38;100991.55;1686472;83;20966;-60
2022/09/05 13:46:46;;;;;;;0.37;0.30;;;;;;;17.00;54.45;100990.39;1666183;83;20993;-60
2022/09/05 13:49:54;;;;;;;2.25;0.60;;;;;;;17.02;54.53;101003.48;1684551;83;20941;-60
2022/09/05 13:52:46;;;;;;;0.93;0.47;;;;;;;17.03;54.51;100989.37;1636533;86;20945;-60
2022/09/05 13:55:39;;;;;;;1.70;0.50;;;;;;;17.00;54.38;100994.83;1598741;87;20985;-60
2022/09/05 13:58:45;;;;;;;1.15;0.40;;;;;;;16.99;54.59;100991.30;1576260;88;21516;-60
2022/09/05 14:02:16;;;;;;;0.50;0.30;;;;;;;17.01;54.60;100997.83;1565656;90;21026;-60
2022/09/05 14:05:04;;;;;;;1.55;0.53;;;;;;;17.02;54.41;100996.89;1566402;90;20981;-60
2022/09/05 14:08:50;;;;;;;0.60;0.40;;;;;;;16.99;54.58;100991.78;1575623;89;21530;-60
2022/09/05 14:11:43;;;;;;;1.57;0.40;;;;;;;16.99;54.55;100994.42;1562977;90;21019;-60
2022/09/05 14:14:51;;;;;;;0.23;0.20;;;;;;;16.89;54.23;100991.91;1555756;90;21012;-60
2022/09/05 14:18:14;;;;;;;1.07;0.50;;;;;;;16.78;54.28;100988.05;1562196;90;20989;-60
2022/09/05 14:21:14;;;;;;;0.30;0.25;;;;;;;16.71;54.34;100979.18;1578665;89;21096;-60
2022/09/05 14:24:23;;;;;;;0.42;0.30;;;;;;;16.72;54.50;100969.88;1582517;89;21124;-61